createdAt,value
2018-12-23T00:00:30.738Z,100985.00
2018-12-23T00:02:58.865Z,100988.00
2018-12-23T00:05:27.008Z,100981.00
2018-12-23T00:07:55.128Z,100976.00
2018-12-23T00:10:23.176Z,100985.00
2018-12-23T00:12:51.288Z,100967.00
2018-12-23T00:15:19.474Z,100971.00
2018-12-23T00:17:47.552Z,100980.00
2018-12-23T00:20:15.792Z,100985.00
2018-12-23T00:22:44.086Z,100985.00
2018-12-23T00:25:12.245Z,100997.00
2018-12-23T00:27:40.417Z,100984.00
2018-12-23T00:30:10.883Z,100991.00
2018-12-23T00:32:39.051Z,101000.00
2018-12-23T00:35:07.283Z,100998.00
2018-12-23T00:37:35.385Z,101000.00
2018-12-23T00:40:03.896Z,101010.00
2018-12-23T00:42:31.982Z,101002.00
2018-12-23T00:45:00.164Z,101007.00
2018-12-23T00:47:28.193Z,101008.00
2018-12-23T00:49:56.201Z,101013.00
2018-12-23T00:52:24.409Z,101017.00
2018-12-23T00:54:52.593Z,101024.00
2018-12-23T00:57:20.695Z,101030.00
2018-12-23T00:59:48.701Z,101045.00
2018-12-23T01:02:16.809Z,101038.00
2018-12-23T01:04:44.858Z,101036.00
2018-12-23T01:07:12.987Z,101043.00
2018-12-23T01:09:41.193Z,101053.00
2018-12-23T01:12:09.312Z,101056.00
2018-12-23T01:14:37.377Z,101063.00
2018-12-23T01:17:05.440Z,101052.00
2018-12-23T01:19:33.513Z,101053.00
2018-12-23T01:22:01.546Z,101062.00
2018-12-23T01:24:29.660Z,101068.00
2018-12-23T01:26:57.652Z,101056.00
2018-12-23T01:29:25.786Z,101067.00
2018-12-23T01:31:53.878Z,101074.00
2018-12-23T01:34:21.923Z,101061.00
2018-12-23T01:36:50.020Z,101063.00
2018-12-23T01:39:18.128Z,101062.00
2018-12-23T01:41:46.194Z,101049.00
2018-12-23T01:44:14.317Z,101064.00
2018-12-23T01:46:42.438Z,101057.00
2018-12-23T01:49:10.783Z,101065.00
2018-12-23T01:51:38.769Z,101073.00
2018-12-23T01:54:06.828Z,101085.00
2018-12-23T01:56:34.907Z,101084.00
2018-12-23T01:59:02.950Z,101086.00
2018-12-23T02:01:31.029Z,101089.00
2018-12-23T02:03:59.078Z,101079.00
2018-12-23T02:06:27.105Z,101089.00
2018-12-23T02:08:55.127Z,101083.00
2018-12-23T02:11:23.125Z,101085.00
2018-12-23T02:13:51.154Z,101086.00
2018-12-23T02:16:19.177Z,101085.00
2018-12-23T02:18:47.257Z,101079.00
2018-12-23T02:21:15.409Z,101078.00
2018-12-23T02:23:43.455Z,101061.00
2018-12-23T02:26:11.539Z,101068.00
2018-12-23T02:28:39.534Z,101074.00
2018-12-23T02:31:07.689Z,101070.00
2018-12-23T02:33:35.937Z,101065.00
2018-12-23T02:36:04.092Z,101060.00
2018-12-23T02:38:32.495Z,101056.00
2018-12-23T02:41:00.773Z,101052.00
2018-12-23T02:43:28.739Z,101069.00
2018-12-23T02:45:56.835Z,101066.00
2018-12-23T02:48:24.822Z,101062.00
2018-12-23T02:50:52.882Z,101069.00
2018-12-23T02:53:20.848Z,101067.00
2018-12-23T02:55:48.818Z,101069.00
2018-12-23T02:58:16.894Z,101076.00
2018-12-23T03:00:44.926Z,101080.00
2018-12-23T03:03:13.034Z,101080.00
2018-12-23T03:05:41.098Z,101078.00
2018-12-23T03:08:09.092Z,101077.00
2018-12-23T03:10:37.087Z,101079.00
2018-12-23T03:13:05.210Z,101078.00
2018-12-23T03:15:33.241Z,101088.00
2018-12-23T03:18:01.269Z,101074.00
2018-12-23T03:20:29.332Z,101077.00
2018-12-23T03:22:57.562Z,101080.00
2018-12-23T03:25:25.699Z,101081.00
2018-12-23T03:27:53.706Z,101071.00
2018-12-23T03:30:21.706Z,101077.00
2018-12-23T03:32:49.841Z,101068.00
2018-12-23T03:35:17.957Z,101077.00
2018-12-23T03:37:45.973Z,101073.00
2018-12-23T03:40:14.116Z,101077.00
2018-12-23T03:42:42.335Z,101077.00
2018-12-23T03:45:10.390Z,101073.00
2018-12-23T03:47:38.392Z,101086.00
2018-12-23T03:50:06.690Z,101067.00
2018-12-23T03:52:34.711Z,101069.00
2018-12-23T03:55:02.922Z,101065.00
2018-12-23T03:57:31.310Z,101059.00
2018-12-23T03:59:59.403Z,101054.00
2018-12-23T04:02:27.420Z,101067.00
2018-12-23T04:04:55.547Z,101072.00
2018-12-23T04:07:23.544Z,101057.00
2018-12-23T04:09:51.573Z,101052.00
2018-12-23T04:12:19.618Z,101056.00
2018-12-23T04:14:47.636Z,101064.00
2018-12-23T04:17:15.688Z,101062.00
2018-12-23T04:19:43.723Z,101066.00
2018-12-23T04:22:11.782Z,101064.00
2018-12-23T04:24:41.877Z,101047.00
2018-12-23T04:27:09.930Z,101053.00
2018-12-23T04:29:38.087Z,101051.00
2018-12-23T04:32:06.227Z,101050.00
2018-12-23T04:34:34.666Z,101052.00
2018-12-23T04:37:02.761Z,101054.00
2018-12-23T04:39:31.016Z,101054.00
2018-12-23T04:41:58.981Z,101052.00
2018-12-23T04:44:26.951Z,101052.00
2018-12-23T04:46:54.949Z,101055.00
2018-12-23T04:49:22.991Z,101070.00
2018-12-23T04:51:51.310Z,101059.00
2018-12-23T04:54:19.308Z,101066.00
2018-12-23T04:56:47.373Z,101047.00
2018-12-23T04:59:15.409Z,101057.00
2018-12-23T05:01:43.585Z,101051.00
2018-12-23T05:04:11.658Z,101051.00
2018-12-23T05:06:43.513Z,101050.00
2018-12-23T05:09:09.746Z,101047.00
2018-12-23T05:11:37.867Z,101044.00
2018-12-23T05:14:05.942Z,101049.00
2018-12-23T05:16:33.993Z,101047.00
2018-12-23T05:19:02.090Z,101053.00
2018-12-23T05:21:30.079Z,101046.00
2018-12-23T05:23:58.123Z,101046.00
2018-12-23T05:26:26.088Z,101041.00
2018-12-23T05:28:54.097Z,101049.00
2018-12-23T05:31:22.086Z,101050.00
2018-12-23T05:33:50.151Z,101045.00
2018-12-23T05:36:18.362Z,101043.00
2018-12-23T05:38:46.470Z,101053.00
2018-12-23T05:41:14.440Z,101037.00
2018-12-23T05:43:42.479Z,101045.00
2018-12-23T05:46:10.519Z,101044.00
2018-12-23T05:48:38.682Z,101052.00
2018-12-23T05:51:06.669Z,101047.00
2018-12-23T05:53:34.729Z,101053.00
2018-12-23T05:56:02.861Z,101052.00
2018-12-23T05:58:30.924Z,101052.00
2018-12-23T06:00:58.956Z,101060.00
2018-12-23T06:03:26.923Z,101050.00
2018-12-23T06:05:55.606Z,101048.00
2018-12-23T06:08:23.634Z,101052.00
2018-12-23T06:10:51.603Z,101059.00
2018-12-23T06:13:20.592Z,101053.00
2018-12-23T06:15:48.590Z,101067.00
2018-12-23T06:18:16.727Z,101071.00
2018-12-23T06:20:44.793Z,101086.00
2018-12-23T06:23:12.959Z,101079.00
2018-12-23T06:25:40.939Z,101082.00
2018-12-23T06:28:08.934Z,101074.00
2018-12-23T06:30:36.975Z,101074.00
2018-12-23T06:33:04.977Z,101072.00
2018-12-23T06:35:33.027Z,101062.00
2018-12-23T06:38:01.066Z,101070.00
2018-12-23T06:40:29.039Z,101065.00
2018-12-23T06:42:57.002Z,101074.00
2018-12-23T06:45:24.968Z,101068.00
2018-12-23T06:47:52.966Z,101070.00
2018-12-23T06:50:21.095Z,101067.00
2018-12-23T06:52:49.110Z,101066.00
2018-12-23T06:55:17.113Z,101070.00
2018-12-23T06:57:45.282Z,101056.00
2018-12-23T07:00:13.254Z,101066.00
2018-12-23T07:02:41.295Z,101070.00
2018-12-23T07:05:09.266Z,101075.00
2018-12-23T07:07:37.271Z,101076.00
2018-12-23T07:10:07.099Z,101080.00
2018-12-23T07:12:35.120Z,101079.00
2018-12-23T07:15:03.244Z,101072.00
2018-12-23T07:17:31.226Z,101076.00
2018-12-23T07:19:59.235Z,101068.00
2018-12-23T07:22:27.459Z,101081.00
2018-12-23T07:24:55.447Z,101084.00
2018-12-23T07:27:23.393Z,101081.00
2018-12-23T07:29:51.412Z,101090.00
2018-12-23T07:32:19.447Z,100988.00
2018-12-23T07:34:47.457Z,101095.00
2018-12-23T07:37:15.528Z,101086.00
2018-12-23T07:39:43.658Z,101093.00
2018-12-23T07:42:11.760Z,101090.00
2018-12-23T07:44:39.888Z,101095.00
2018-12-23T07:47:07.852Z,101086.00
2018-12-23T07:49:36.098Z,101095.00
2018-12-23T07:52:04.257Z,101091.00
2018-12-23T07:54:32.730Z,101092.00
2018-12-23T07:57:00.783Z,101084.00
2018-12-23T07:59:28.848Z,101084.00
2018-12-23T08:01:57.067Z,101084.00
2018-12-23T08:04:25.179Z,101092.00
2018-12-23T08:06:53.243Z,101084.00
2018-12-23T08:09:21.280Z,101087.00
2018-12-23T08:11:49.320Z,101088.00
2018-12-23T08:14:17.371Z,101080.00
2018-12-23T08:16:45.475Z,101090.00
2018-12-23T08:19:13.594Z,101093.00
2018-12-23T08:21:41.620Z,101085.00
2018-12-23T08:24:09.651Z,101090.00
2018-12-23T08:26:37.701Z,101083.00
2018-12-23T08:29:05.812Z,101080.00
2018-12-23T08:31:33.879Z,101082.00
2018-12-23T08:34:01.911Z,101078.00
2018-12-23T08:36:29.936Z,101091.00
2018-12-23T08:38:58.041Z,101077.00
2018-12-23T08:41:26.271Z,101082.00
2018-12-23T08:43:54.527Z,101083.00
2018-12-23T08:46:22.698Z,101082.00
2018-12-23T08:48:50.855Z,101082.00
2018-12-23T08:51:18.902Z,101082.00
2018-12-23T08:53:46.934Z,101075.00
2018-12-23T08:56:14.923Z,101080.00
2018-12-23T08:58:42.983Z,101079.00
2018-12-23T09:01:11.026Z,101081.00
2018-12-23T09:03:39.052Z,101076.00
2018-12-23T09:06:07.086Z,101076.00
2018-12-23T09:08:35.102Z,101074.00
2018-12-23T09:11:03.205Z,101079.00
2018-12-23T09:13:31.252Z,101069.00
2018-12-23T09:15:59.434Z,101071.00
2018-12-23T09:18:27.519Z,101067.00
2018-12-23T09:20:55.687Z,101061.00
2018-12-23T09:23:23.794Z,101053.00
2018-12-23T09:25:51.837Z,101048.00
2018-12-23T09:28:19.994Z,101051.00
2018-12-23T09:30:48.106Z,101054.00
2018-12-23T09:33:16.289Z,101058.00
2018-12-23T09:35:44.312Z,101057.00
2018-12-23T09:38:12.678Z,101046.00
2018-12-23T09:40:40.967Z,101052.00
2018-12-23T09:43:09.156Z,101048.00
2018-12-23T09:45:37.281Z,101036.00
2018-12-23T09:48:05.435Z,101030.00
2018-12-23T09:50:33.571Z,101033.00
2018-12-23T09:53:01.682Z,101040.00
2018-12-23T09:55:29.849Z,101037.00
2018-12-23T09:57:57.983Z,101025.00
2018-12-23T10:00:26.110Z,101025.00
2018-12-23T10:02:54.677Z,101018.00
2018-12-23T10:05:22.870Z,101021.00
2018-12-23T10:07:50.982Z,101012.00
2018-12-23T10:10:19.107Z,101004.00
2018-12-23T10:12:47.191Z,101008.00
2018-12-23T10:15:15.360Z,101005.00
2018-12-23T10:17:43.455Z,100995.00
2018-12-23T10:20:11.733Z,100989.00
2018-12-23T10:22:39.855Z,100987.00
2018-12-23T10:25:08.071Z,100977.00
2018-12-23T10:27:36.319Z,100980.00
2018-12-23T10:30:05.144Z,100975.00
2018-12-23T10:32:33.240Z,100974.00
2018-12-23T10:35:01.425Z,100962.00
2018-12-23T10:37:29.645Z,100976.00
2018-12-23T10:39:57.822Z,100960.00
2018-12-23T10:42:25.832Z,100945.00
2018-12-23T10:44:54.089Z,100937.00
2018-12-23T10:47:22.366Z,100933.00
2018-12-23T10:49:50.488Z,100937.00
2018-12-23T10:52:18.545Z,100920.00
2018-12-23T10:54:47.023Z,100920.00
2018-12-23T10:57:15.210Z,100926.00
2018-12-23T10:59:43.388Z,100920.00
2018-12-23T11:02:13.781Z,100907.00
2018-12-23T11:04:41.655Z,100891.00
2018-12-23T11:07:09.733Z,100894.00
2018-12-23T11:09:37.936Z,100894.00
2018-12-23T11:12:06.102Z,100883.00
2018-12-23T11:14:34.366Z,100876.00
2018-12-23T11:17:02.497Z,100864.00
2018-12-23T11:19:30.612Z,100864.00
2018-12-23T11:22:07.637Z,100859.00
2018-12-23T11:24:35.807Z,100849.00
2018-12-23T11:27:04.174Z,100839.00
2018-12-23T11:29:32.325Z,100845.00
2018-12-23T11:32:00.487Z,100833.00
2018-12-23T11:34:28.707Z,100827.00
2018-12-23T11:36:57.299Z,100825.00
2018-12-23T11:39:25.542Z,100822.00
2018-12-23T11:41:53.732Z,100819.00
2018-12-23T11:44:21.929Z,100812.00
2018-12-23T11:46:50.938Z,100810.00
2018-12-23T11:49:19.228Z,100828.00
2018-12-23T11:51:47.376Z,100808.00
2018-12-23T11:54:15.637Z,100805.00
2018-12-23T11:56:43.722Z,100805.00
2018-12-23T11:59:11.873Z,100803.00
2018-12-23T12:01:40.050Z,100787.00
2018-12-23T12:04:08.208Z,100782.00
2018-12-23T12:06:36.741Z,100780.00
2018-12-23T12:09:07.441Z,100779.00
2018-12-23T12:11:35.837Z,100778.00
2018-12-23T12:14:04.529Z,100779.00
2018-12-23T12:16:32.736Z,100770.00
2018-12-23T12:19:01.247Z,100770.00
2018-12-23T12:21:29.456Z,100770.00
2018-12-23T12:23:57.883Z,100758.00
2018-12-23T12:26:26.225Z,100756.00
2018-12-23T12:28:54.613Z,100745.00
2018-12-23T12:31:22.977Z,100737.00
2018-12-23T12:33:51.344Z,100737.00
2018-12-23T12:36:19.912Z,100739.00
2018-12-23T12:38:52.105Z,100739.00
2018-12-23T12:41:18.475Z,100726.00
2018-12-23T12:43:46.627Z,100725.00
2018-12-23T12:46:14.811Z,100722.00
2018-12-23T12:48:43.204Z,100718.00
2018-12-23T12:51:11.733Z,100723.00
2018-12-23T12:53:39.964Z,100715.00
2018-12-23T12:56:08.195Z,100713.00
2018-12-23T12:58:36.325Z,100713.00
2018-12-23T13:01:04.568Z,100710.00
2018-12-23T13:03:32.843Z,100717.00
2018-12-23T13:06:01.153Z,100697.00
2018-12-23T13:08:29.399Z,100689.00
2018-12-23T13:10:57.626Z,100700.00
2018-12-23T13:13:25.810Z,100687.00
2018-12-23T13:15:54.061Z,100628.00
2018-12-23T13:18:22.133Z,100680.00
2018-12-23T13:20:50.429Z,100674.00
2018-12-23T13:23:18.661Z,100676.00
2018-12-23T13:25:46.968Z,100664.00
2018-12-23T13:28:15.419Z,100669.00
2018-12-23T13:30:43.613Z,100655.00
2018-12-23T13:33:11.785Z,100651.00
2018-12-23T13:35:39.919Z,100647.00
2018-12-23T13:38:08.184Z,100641.00
2018-12-23T13:40:51.870Z,100635.00
2018-12-23T13:44:38.416Z,100627.00
2018-12-23T13:48:22.058Z,100614.00
2018-12-23T13:54:22.379Z,100606.00
2018-12-23T13:57:17.232Z,100589.00
2018-12-23T14:01:09.715Z,100591.00
2018-12-23T14:05:24.814Z,100590.00
2018-12-23T14:08:40.676Z,100581.00
2018-12-23T14:11:55.556Z,100574.00
2018-12-23T14:14:24.019Z,100561.00
2018-12-23T14:16:52.330Z,100559.00
2018-12-23T14:19:20.724Z,100546.00
2018-12-23T14:21:48.999Z,100545.00
2018-12-23T14:24:17.178Z,100545.00
2018-12-23T14:26:45.379Z,100541.00
2018-12-23T14:29:13.507Z,100518.00
2018-12-23T14:31:41.638Z,100506.00
2018-12-23T14:34:09.899Z,100505.00
2018-12-23T14:36:38.192Z,100495.00
2018-12-23T14:39:08.360Z,100499.00
2018-12-23T14:41:36.629Z,100497.00
2018-12-23T14:44:04.809Z,100492.00
2018-12-23T14:46:32.924Z,100486.00
2018-12-23T14:49:01.103Z,100478.00
2018-12-23T14:51:29.329Z,100482.00
2018-12-23T14:53:57.572Z,100483.00
2018-12-23T14:56:25.974Z,100468.00
2018-12-23T14:58:54.358Z,100474.00
2018-12-23T15:01:22.589Z,100464.00
2018-12-23T15:03:50.702Z,100456.00
2018-12-23T15:06:18.867Z,100455.00
2018-12-23T15:08:47.045Z,100453.00
2018-12-23T15:11:15.484Z,100460.00
2018-12-23T15:13:43.750Z,100441.00
2018-12-23T15:16:12.038Z,100457.00
2018-12-23T15:18:43.220Z,100453.00
2018-12-23T15:21:11.503Z,100437.00
2018-12-23T15:23:39.773Z,100436.00
2018-12-23T15:26:07.990Z,100428.00
2018-12-23T15:28:36.131Z,100429.00
2018-12-23T15:31:04.447Z,100413.00
2018-12-23T15:33:32.509Z,100408.00
2018-12-23T15:36:00.753Z,100412.00
2018-12-23T15:38:29.604Z,100398.00
2018-12-23T15:41:01.873Z,100391.00
2018-12-23T15:43:30.183Z,100391.00
2018-12-23T15:45:58.460Z,100382.00
2018-12-23T15:48:26.601Z,100395.00
2018-12-23T15:50:54.997Z,100384.00
2018-12-23T15:53:23.278Z,100371.00
2018-12-23T15:55:51.507Z,100361.00
2018-12-23T15:58:19.860Z,100366.00
2018-12-23T16:00:48.196Z,100368.00
2018-12-23T16:03:16.419Z,100352.00
2018-12-23T16:05:44.960Z,100340.00
2018-12-23T16:08:13.637Z,100326.00
2018-12-23T16:10:42.025Z,100334.00
2018-12-23T16:13:10.335Z,100345.00
2018-12-23T16:15:38.586Z,100331.00
2018-12-23T16:18:06.853Z,100341.00
2018-12-23T16:20:36.636Z,100326.00
2018-12-23T16:23:04.976Z,100316.00
2018-12-23T16:25:33.344Z,100302.00
2018-12-23T16:28:01.737Z,100291.00
2018-12-23T16:30:30.354Z,100293.00
2018-12-23T16:32:58.671Z,100275.00
2018-12-23T16:35:27.044Z,100284.00
2018-12-23T16:37:55.711Z,100285.00
2018-12-23T16:40:24.102Z,100279.00
2018-12-23T16:42:53.335Z,100283.00
2018-12-23T16:45:21.855Z,100270.00
2018-12-23T16:47:50.396Z,100261.00
2018-12-23T16:50:18.713Z,100260.00
2018-12-23T16:52:47.257Z,100248.00
2018-12-23T16:55:15.526Z,100248.00
2018-12-23T16:57:43.825Z,100249.00
2018-12-23T17:00:14.627Z,100249.00
2018-12-23T17:02:42.933Z,100240.00
2018-12-23T17:05:11.282Z,100235.00
2018-12-23T17:07:39.834Z,100240.00
2018-12-23T17:10:09.103Z,100243.00
2018-12-23T17:12:37.766Z,100233.00
2018-12-23T17:15:08.035Z,100222.00
2018-12-23T17:17:36.495Z,100223.00
2018-12-23T17:20:08.261Z,100229.00
2018-12-23T17:22:36.697Z,100231.00
2018-12-23T17:25:05.284Z,100230.00
2018-12-23T17:27:33.699Z,100225.00
2018-12-23T17:30:02.249Z,100217.00
2018-12-23T17:32:30.515Z,100209.00
2018-12-23T17:34:58.901Z,100204.00
2018-12-23T17:37:27.467Z,100205.00
2018-12-23T17:39:55.940Z,100198.00
2018-12-23T17:42:24.271Z,100197.00
2018-12-23T17:44:52.530Z,100194.00
2018-12-23T17:47:20.911Z,100184.00
2018-12-23T17:49:49.295Z,100188.00
2018-12-23T17:52:23.159Z,100195.00
2018-12-23T17:54:47.925Z,100203.00
2018-12-23T17:57:16.150Z,100196.00
2018-12-23T17:59:51.086Z,100190.00
2018-12-23T18:02:20.246Z,100182.00
2018-12-23T18:04:48.565Z,100175.00
2018-12-23T18:07:17.060Z,100188.00
2018-12-23T18:09:45.426Z,100175.00
2018-12-23T18:12:13.825Z,100158.00
2018-12-23T18:14:42.183Z,100170.00
2018-12-23T18:17:10.699Z,100172.00
2018-12-23T18:19:39.058Z,100173.00
2018-12-23T18:22:07.481Z,100159.00
2018-12-23T18:24:35.825Z,100148.00
2018-12-23T18:27:04.201Z,100146.00
2018-12-23T18:29:32.623Z,100146.00
2018-12-23T18:32:01.065Z,100135.00
2018-12-23T18:34:29.607Z,100115.00
2018-12-23T18:36:58.001Z,100123.00
2018-12-23T18:39:26.775Z,100132.00
2018-12-23T18:41:55.222Z,100141.00
2018-12-23T18:44:23.643Z,100140.00
2018-12-23T18:46:52.114Z,100135.00
2018-12-23T18:49:20.956Z,100132.00
2018-12-23T18:51:49.533Z,100133.00
2018-12-23T18:54:17.759Z,100125.00
2018-12-23T18:56:49.408Z,100120.00
2018-12-23T18:59:20.981Z,100126.00
2018-12-23T19:02:01.877Z,100108.00
2018-12-23T19:04:32.494Z,100109.00
2018-12-23T19:07:00.951Z,100105.00
2018-12-23T19:09:43.814Z,100098.00
2018-12-23T19:17:38.595Z,100097.00
2018-12-23T19:20:45.812Z,100100.00
2018-12-23T19:24:58.488Z,100083.00
2018-12-23T19:28:45.535Z,100092.00
2018-12-23T19:36:39.829Z,100087.00
2018-12-23T19:39:27.144Z,100066.00
2018-12-23T19:44:14.493Z,100075.00
2018-12-23T19:48:03.064Z,100069.00
2018-12-23T19:55:07.735Z,100075.00
2018-12-23T20:00:58.426Z,100053.00
2018-12-23T20:04:00.295Z,100031.00
2018-12-23T20:09:01.566Z,100030.00
2018-12-23T20:13:55.672Z,100019.00
2018-12-23T20:18:41.989Z,100018.00
2018-12-23T20:23:27.803Z,100009.00
2018-12-23T20:28:18.678Z,100015.00
2018-12-23T20:31:08.610Z,100013.00
2018-12-23T20:34:08.274Z,100010.00
2018-12-23T20:37:15.802Z,99994.00
2018-12-23T20:40:17.886Z,99982.00
2018-12-23T20:43:09.066Z,99986.00
2018-12-23T20:47:01.684Z,99968.00
2018-12-23T20:49:50.787Z,99967.00
2018-12-23T20:53:35.296Z,99950.00
2018-12-23T21:00:33.134Z,99961.00
2018-12-23T21:03:32.994Z,99964.00
2018-12-23T21:06:52.698Z,99958.00
2018-12-23T21:10:18.980Z,99952.00
2018-12-23T21:13:45.267Z,99818.00
2018-12-23T21:16:59.835Z,99839.00
2018-12-23T21:20:32.407Z,99935.00
2018-12-23T21:23:58.700Z,100016.00
2018-12-23T21:27:24.913Z,99777.00
2018-12-23T21:30:51.425Z,100000.00
2018-12-23T21:34:45.265Z,99954.00
2018-12-23T21:38:17.838Z,99963.00
2018-12-23T21:41:32.155Z,99968.00
2018-12-23T21:44:58.360Z,100020.00
2018-12-23T21:48:25.103Z,100008.00
2018-12-23T21:51:37.506Z,99927.00
2018-12-23T21:57:55.490Z,99931.00
2018-12-23T22:01:22.436Z,99896.00
2018-12-23T22:04:48.945Z,99943.00
2018-12-23T22:08:15.533Z,99944.00
2018-12-23T22:11:42.384Z,99936.00
2018-12-23T22:14:29.803Z,99828.00
2018-12-23T22:17:17.499Z,99923.00
2018-12-23T22:20:05.313Z,99934.00
2018-12-23T22:22:55.468Z,99746.00
2018-12-23T22:25:43.560Z,99973.00
2018-12-23T22:28:31.014Z,99903.00
2018-12-23T22:30:58.955Z,99905.00
2018-12-23T22:33:27.705Z,99907.00
2018-12-23T22:35:55.793Z,99906.00
2018-12-23T22:38:43.754Z,99914.00
2018-12-23T22:41:31.255Z,99841.00
2018-12-23T22:44:19.286Z,99914.00
2018-12-23T22:47:06.898Z,99896.00
2018-12-23T22:49:55.202Z,99966.00
2018-12-23T22:52:42.761Z,99764.00
2018-12-23T22:55:30.082Z,99911.00
2018-12-23T22:58:17.429Z,99784.00
2018-12-23T23:01:05.549Z,99683.00
2018-12-23T23:03:46.444Z,99882.00
2018-12-23T23:06:33.789Z,99808.00
2018-12-23T23:09:21.263Z,99887.00
2018-12-23T23:11:49.968Z,99870.00
2018-12-23T23:14:18.030Z,99875.00
2018-12-23T23:17:05.507Z,99669.00
2018-12-23T23:19:53.020Z,99730.00
2018-12-23T23:22:21.055Z,99891.00
2018-12-23T23:25:08.333Z,99939.00
2018-12-23T23:27:55.655Z,99907.00
2018-12-23T23:30:43.046Z,99918.00
2018-12-23T23:33:30.335Z,99920.00
2018-12-23T23:36:17.614Z,99947.00
2018-12-23T23:38:45.430Z,99981.00
2018-12-23T23:41:13.372Z,100011.00
2018-12-23T23:44:02.393Z,99879.00
2018-12-23T23:46:49.640Z,99897.00
2018-12-23T23:49:36.905Z,99888.00
2018-12-23T23:52:24.205Z,100060.00
2018-12-23T23:55:11.483Z,100094.00
2018-12-23T23:57:58.759Z,100092.00
